sensor_id;sensor_type;location;lat;lon;timestamp;P1;durP1;ratioP1;P2;durP2;ratioP2
67675;SDS011;54456;48.436;10.028;2023-02-16T00:00:48;62.95;;;18.35;;
67675;SDS011;54456;48.436;10.028;2023-02-16T00:02:19;50.78;;;17.95;;
67675;SDS011;54456;48.436;10.028;2023-02-16T00:03:49;52.63;;;17.07;;
67675;SDS011;54456;48.436;10.028;2023-02-16T00:05:22;53.60;;;17.98;;
67675;SDS011;54456;48.436;10.028;2023-02-16T00:06:53;23.25;;;9.13;;
67675;SDS011;54456;48.436;10.028;2023-02-16T00:08:23;54.28;;;16.10;;
67675;SDS011;54456;48.436;10.028;2023-02-16T00:09:53;49.93;;;15.20;;
67675;SDS011;54456;48.436;10.028;2023-02-16T00:13:21;56.80;;;16.33;;
67675;SDS011;54456;48.436;10.028;2023-02-16T00:15:16;46.40;;;15.95;;
67675;SDS011;54456;48.436;10.028;2023-02-16T00:16:47;51.13;;;17.20;;
67675;SDS011;54456;48.436;10.028;2023-02-16T00:18:18;58.65;;;19.60;;
67675;SDS011;54456;48.436;10.028;2023-02-16T00:19:48;51.83;;;16.17;;
67675;SDS011;54456;48.436;10.028;2023-02-16T00:21:19;59.63;;;18.90;;
67675;SDS011;54456;48.436;10.028;2023-02-16T00:22:49;56.83;;;20.40;;
67675;SDS011;54456;48.436;10.028;2023-02-16T00:24:19;65.23;;;19.57;;
67675;SDS011;54456;48.436;10.028;2023-02-16T00:25:50;65.05;;;18.98;;
67675;SDS011;54456;48.436;10.028;2023-02-16T00:27:20;73.67;;;19.50;;
67675;SDS011;54456;48.436;10.028;2023-02-16T00:28:51;72.10;;;23.33;;
67675;SDS011;54456;48.436;10.028;2023-02-16T04:15:55;73.38;;;23.35;;
67675;SDS011;54456;48.436;10.028;2023-02-16T04:17:25;65.90;;;21.40;;
67675;SDS011;54456;48.436;10.028;2023-02-16T04:18:55;80.33;;;24.63;;
67675;SDS011;54456;48.436;10.028;2023-02-16T04:20:27;87.03;;;26.57;;
67675;SDS011;54456;48.436;10.028;2023-02-16T04:21:58;103.43;;;28.05;;
67675;SDS011;54456;48.436;10.028;2023-02-16T04:23:28;90.50;;;26.03;;
67675;SDS011;54456;48.436;10.028;2023-02-16T04:25:01;74.37;;;23.23;;
67675;SDS011;54456;48.436;10.028;2023-02-16T04:26:31;81.70;;;26.80;;
67675;SDS011;54456;48.436;10.028;2023-02-16T04:28:02;85.50;;;23.80;;
67675;SDS011;54456;48.436;10.028;2023-02-16T04:29:32;97.55;;;26.42;;
67675;SDS011;54456;48.436;10.028;2023-02-16T04:31:02;91.90;;;26.07;;
67675;SDS011;54456;48.436;10.028;2023-02-16T04:32:33;110.93;;;31.63;;
67675;SDS011;54456;48.436;10.028;2023-02-16T04:34:03;84.10;;;26.47;;
67675;SDS011;54456;48.436;10.028;2023-02-16T04:35:33;105.10;;;29.00;;
67675;SDS011;54456;48.436;10.028;2023-02-16T04:37:03;108.33;;;30.40;;
67675;SDS011;54456;48.436;10.028;2023-02-16T04:38:34;80.38;;;23.50;;
67675;SDS011;54456;48.436;10.028;2023-02-16T04:40:05;122.03;;;36.10;;
67675;SDS011;54456;48.436;10.028;2023-02-16T04:41:36;102.63;;;29.77;;
67675;SDS011;54456;48.436;10.028;2023-02-16T04:43:06;100.43;;;25.43;;
67675;SDS011;54456;48.436;10.028;2023-02-16T04:44:36;94.83;;;27.60;;
67675;SDS011;54456;48.436;10.028;2023-02-16T04:46:07;102.30;;;27.48;;
67675;SDS011;54456;48.436;10.028;2023-02-16T04:47:37;84.17;;;24.10;;
67675;SDS011;54456;48.436;10.028;2023-02-16T04:49:07;88.33;;;24.43;;
67675;SDS011;54456;48.436;10.028;2023-02-16T04:50:37;96.23;;;26.47;;
67675;SDS011;54456;48.436;10.028;2023-02-16T04:52:08;82.67;;;23.80;;
67675;SDS011;54456;48.436;10.028;2023-02-16T04:53:38;76.57;;;22.48;;
67675;SDS011;54456;48.436;10.028;2023-02-16T04:55:08;74.73;;;22.47;;
67675;SDS011;54456;48.436;10.028;2023-02-16T04:56:42;69.95;;;20.75;;
67675;SDS011;54456;48.436;10.028;2023-02-16T04:58:12;73.07;;;21.60;;
67675;SDS011;54456;48.436;10.028;2023-02-16T04:59:42;70.50;;;22.55;;
67675;SDS011;54456;48.436;10.028;2023-02-16T05:01:19;72.23;;;22.13;;
67675;SDS011;54456;48.436;10.028;2023-02-16T05:02:50;68.93;;;20.75;;
67675;SDS011;54456;48.436;10.028;2023-02-16T05:04:20;70.17;;;21.23;;
67675;SDS011;54456;48.436;10.028;2023-02-16T05:05:50;78.27;;;23.13;;
67675;SDS011;54456;48.436;10.028;2023-02-16T05:07:20;85.07;;;21.93;;
67675;SDS011;54456;48.436;10.028;2023-02-16T05:08:51;80.87;;;25.87;;
67675;SDS011;54456;48.436;10.028;2023-02-16T05:10:21;79.43;;;22.17;;
67675;SDS011;54456;48.436;10.028;2023-02-16T05:11:51;79.50;;;24.57;;
67675;SDS011;54456;48.436;10.028;2023-02-16T05:13:40;83.18;;;25.85;;
67675;SDS011;54456;48.436;10.028;2023-02-16T05:15:29;70.53;;;23.05;;
67675;SDS011;54456;48.436;10.028;2023-02-16T05:16:59;71.03;;;20.50;;
67675;SDS011;54456;48.436;10.028;2023-02-16T05:18:29;69.43;;;21.20;;
67675;SDS011;54456;48.436;10.028;2023-02-16T05:19:59;70.23;;;21.43;;
67675;SDS011;54456;48.436;10.028;2023-02-16T05:21:30;73.40;;;23.52;;
67675;SDS011;54456;48.436;10.028;2023-02-16T05:23:00;69.73;;;19.77;;
67675;SDS011;54456;48.436;10.028;2023-02-16T05:24:31;72.90;;;22.40;;
67675;SDS011;54456;48.436;10.028;2023-02-16T05:26:01;75.27;;;23.57;;
67675;SDS011;54456;48.436;10.028;2023-02-16T05:27:31;68.97;;;21.53;;
67675;SDS011;54456;48.436;10.028;2023-02-16T05:29:02;75.13;;;22.77;;
67675;SDS011;54456;48.436;10.028;2023-02-16T05:30:32;65.97;;;20.55;;
67675;SDS011;54456;48.436;10.028;2023-02-16T05:32:03;67.10;;;21.98;;
67675;SDS011;54456;48.436;10.028;2023-02-16T05:33:33;80.87;;;24.93;;
67675;SDS011;54456;48.436;10.028;2023-02-16T05:35:03;76.00;;;21.40;;
67675;SDS011;54456;48.436;10.028;2023-02-16T05:36:33;72.75;;;22.35;;
67675;SDS011;54456;48.436;10.028;2023-02-16T05:38:04;68.70;;;24.17;;
67675;SDS011;54456;48.436;10.028;2023-02-16T05:39:34;76.73;;;22.63;;
67675;SDS011;54456;48.436;10.028;2023-02-16T05:41:04;73.23;;;22.90;;
67675;SDS011;54456;48.436;10.028;2023-02-16T05:42:34;77.30;;;22.57;;
67675;SDS011;54456;48.436;10.028;2023-02-16T05:44:05;64.33;;;21.53;;
67675;SDS011;54456;48.436;10.028;2023-02-16T05:45:37;92.45;;;27.23;;
67675;SDS011;54456;48.436;10.028;2023-02-16T05:47:07;80.95;;;24.40;;
67675;SDS011;54456;48.436;10.028;2023-02-16T05:48:37;88.87;;;24.70;;
67675;SDS011;54456;48.436;10.028;2023-02-16T05:50:07;85.70;;;25.90;;
67675;SDS011;54456;48.436;10.028;2023-02-16T05:51:38;84.53;;;26.42;;
67675;SDS011;54456;48.436;10.028;2023-02-16T05:53:08;96.50;;;26.87;;
67675;SDS011;54456;48.436;10.028;2023-02-16T05:54:38;89.53;;;24.80;;
67675;SDS011;54456;48.436;10.028;2023-02-16T05:56:09;95.70;;;26.43;;
67675;SDS011;54456;48.436;10.028;2023-02-16T05:57:39;75.90;;;23.50;;
67675;SDS011;54456;48.436;10.028;2023-02-16T05:59:09;96.70;;;28.93;;
67675;SDS011;54456;48.436;10.028;2023-02-16T06:00:43;92.00;;;24.65;;
67675;SDS011;54456;48.436;10.028;2023-02-16T06:02:13;100.10;;;27.03;;
67675;SDS011;54456;48.436;10.028;2023-02-16T06:03:43;82.07;;;22.93;;
67675;SDS011;54456;48.436;10.028;2023-02-16T06:05:13;91.83;;;26.33;;
67675;SDS011;54456;48.436;10.028;2023-02-16T06:06:44;83.13;;;23.87;;
67675;SDS011;54456;48.436;10.028;2023-02-16T06:08:14;92.78;;;26.15;;
67675;SDS011;54456;48.436;10.028;2023-02-16T06:09:44;90.17;;;27.77;;
67675;SDS011;54456;48.436;10.028;2023-02-16T06:11:14;83.67;;;24.43;;
67675;SDS011;54456;48.436;10.028;2023-02-16T06:13:03;93.10;;;25.80;;
67675;SDS011;54456;48.436;10.028;2023-02-16T06:14:34;80.23;;;24.33;;
67675;SDS011;54456;48.436;10.028;2023-02-16T06:16:04;87.07;;;24.83;;
67675;SDS011;54456;48.436;10.028;2023-02-16T06:17:34;98.67;;;24.00;;
67675;SDS011;54456;48.436;10.028;2023-02-16T06:19:05;93.87;;;26.27;;
67675;SDS011;54456;48.436;10.028;2023-02-16T06:20:38;63.13;;;21.00;;
67675;SDS011;54456;48.436;10.028;2023-02-16T06:22:11;89.93;;;24.65;;
67675;SDS011;54456;48.436;10.028;2023-02-16T06:23:41;73.60;;;22.23;;
67675;SDS011;54456;48.436;10.028;2023-02-16T06:25:11;84.70;;;23.77;;
67675;SDS011;54456;48.436;10.028;2023-02-16T06:26:42;87.93;;;23.57;;
67675;SDS011;54456;48.436;10.028;2023-02-16T06:28:12;80.90;;;23.17;;
67675;SDS011;54456;48.436;10.028;2023-02-16T06:29:42;78.97;;;24.30;;
67675;SDS011;54456;48.436;10.028;2023-02-16T06:31:12;69.77;;;22.20;;
67675;SDS011;54456;48.436;10.028;2023-02-16T06:32:42;83.17;;;23.87;;
67675;SDS011;54456;48.436;10.028;2023-02-16T06:34:13;84.03;;;24.60;;
67675;SDS011;54456;48.436;10.028;2023-02-16T06:35:43;80.37;;;24.80;;
67675;SDS011;54456;48.436;10.028;2023-02-16T06:37:13;81.30;;;24.98;;
67675;SDS011;54456;48.436;10.028;2023-02-16T06:38:44;74.50;;;22.13;;
67675;SDS011;54456;48.436;10.028;2023-02-16T06:40:14;76.85;;;22.15;;
67675;SDS011;54456;48.436;10.028;2023-02-16T06:41:45;75.00;;;21.65;;
67675;SDS011;54456;48.436;10.028;2023-02-16T06:43:15;89.23;;;25.27;;
67675;SDS011;54456;48.436;10.028;2023-02-16T06:44:45;75.67;;;21.70;;
67675;SDS011;54456;48.436;10.028;2023-02-16T06:46:16;80.38;;;22.52;;
67675;SDS011;54456;48.436;10.028;2023-02-16T06:47:47;72.83;;;22.90;;
67675;SDS011;54456;48.436;10.028;2023-02-16T06:49:18;73.73;;;23.53;;
67675;SDS011;54456;48.436;10.028;2023-02-16T06:50:49;75.85;;;21.65;;
67675;SDS011;54456;48.436;10.028;2023-02-16T06:52:21;66.18;;;21.13;;
67675;SDS011;54456;48.436;10.028;2023-02-16T06:53:51;69.53;;;22.17;;
67675;SDS011;54456;48.436;10.028;2023-02-16T06:55:21;62.87;;;18.50;;
67675;SDS011;54456;48.436;10.028;2023-02-16T06:56:51;68.17;;;21.50;;
67675;SDS011;54456;48.436;10.028;2023-02-16T06:58:22;71.07;;;21.87;;
67675;SDS011;54456;48.436;10.028;2023-02-16T06:59:52;77.63;;;24.20;;
67675;SDS011;54456;48.436;10.028;2023-02-16T07:01:22;79.47;;;24.80;;
67675;SDS011;54456;48.436;10.028;2023-02-16T07:02:54;79.35;;;24.10;;
67675;SDS011;54456;48.436;10.028;2023-02-16T07:04:24;81.00;;;23.03;;
67675;SDS011;54456;48.436;10.028;2023-02-16T07:05:55;77.93;;;22.90;;
67675;SDS011;54456;48.436;10.028;2023-02-16T07:07:25;74.53;;;22.33;;
67675;SDS011;54456;48.436;10.028;2023-02-16T07:08:55;76.80;;;22.03;;
67675;SDS011;54456;48.436;10.028;2023-02-16T07:10:25;90.87;;;24.77;;
67675;SDS011;54456;48.436;10.028;2023-02-16T07:11:56;79.80;;;22.73;;
67675;SDS011;54456;48.436;10.028;2023-02-16T07:13:26;78.53;;;24.38;;
67675;SDS011;54456;48.436;10.028;2023-02-16T07:14:56;81.17;;;23.70;;
67675;SDS011;54456;48.436;10.028;2023-02-16T07:16:30;74.10;;;24.30;;
67675;SDS011;54456;48.436;10.028;2023-02-16T07:18:00;84.53;;;25.30;;
67675;SDS011;54456;48.436;10.028;2023-02-16T07:19:30;80.73;;;26.00;;
67675;SDS011;54456;48.436;10.028;2023-02-16T07:21:04;72.05;;;22.75;;
67675;SDS011;54456;48.436;10.028;2023-02-16T07:22:35;77.53;;;23.70;;
67675;SDS011;54456;48.436;10.028;2023-02-16T07:24:05;81.17;;;23.90;;
67675;SDS011;54456;48.436;10.028;2023-02-16T07:25:35;82.57;;;24.90;;
67675;SDS011;54456;48.436;10.028;2023-02-16T07:27:06;98.30;;;27.93;;
67675;SDS011;54456;48.436;10.028;2023-02-16T07:28:37;84.25;;;23.27;;
67675;SDS011;54456;48.436;10.028;2023-02-16T07:30:07;88.77;;;26.37;;
67675;SDS011;54456;48.436;10.028;2023-02-16T07:31:38;85.13;;;24.48;;
67675;SDS011;54456;48.436;10.028;2023-02-16T07:33:08;81.37;;;25.63;;
67675;SDS011;54456;48.436;10.028;2023-02-16T07:34:39;91.95;;;24.50;;
67675;SDS011;54456;48.436;10.028;2023-02-16T07:36:12;89.50;;;24.80;;
67675;SDS011;54456;48.436;10.028;2023-02-16T07:37:46;78.47;;;23.48;;
67675;SDS011;54456;48.436;10.028;2023-02-16T07:39:16;83.65;;;24.70;;
67675;SDS011;54456;48.436;10.028;2023-02-16T07:40:46;78.53;;;22.63;;
67675;SDS011;54456;48.436;10.028;2023-02-16T07:42:17;87.93;;;25.87;;
67675;SDS011;54456;48.436;10.028;2023-02-16T07:43:47;83.70;;;24.57;;
67675;SDS011;54456;48.436;10.028;2023-02-16T07:45:17;87.95;;;24.92;;
67675;SDS011;54456;48.436;10.028;2023-02-16T07:46:48;78.30;;;23.85;;
67675;SDS011;54456;48.436;10.028;2023-02-16T07:48:18;77.00;;;23.43;;
67675;SDS011;54456;48.436;10.028;2023-02-16T07:49:49;76.43;;;23.92;;
67675;SDS011;54456;48.436;10.028;2023-02-16T07:51:20;78.23;;;23.53;;
67675;SDS011;54456;48.436;10.028;2023-02-16T07:52:50;47.83;;;14.55;;
67675;SDS011;54456;48.436;10.028;2023-02-16T07:54:21;73.15;;;23.02;;
67675;SDS011;54456;48.436;10.028;2023-02-16T07:55:51;82.07;;;24.27;;
67675;SDS011;54456;48.436;10.028;2023-02-16T07:57:21;81.70;;;24.17;;
67675;SDS011;54456;48.436;10.028;2023-02-16T07:58:52;75.53;;;22.60;;
67675;SDS011;54456;48.436;10.028;2023-02-16T08:00:22;90.20;;;26.17;;
67675;SDS011;54456;48.436;10.028;2023-02-16T08:01:52;111.73;;;28.53;;
67675;SDS011;54456;48.436;10.028;2023-02-16T08:03:23;139.43;;;34.73;;
67675;SDS011;54456;48.436;10.028;2023-02-16T08:04:53;146.30;;;36.10;;
67675;SDS011;54456;48.436;10.028;2023-02-16T08:06:23;156.70;;;36.63;;
67675;SDS011;54456;48.436;10.028;2023-02-16T08:07:53;158.33;;;38.83;;
67675;SDS011;54456;48.436;10.028;2023-02-16T08:09:24;166.73;;;40.05;;
67675;SDS011;54456;48.436;10.028;2023-02-16T08:10:54;176.77;;;40.50;;
67675;SDS011;54456;48.436;10.028;2023-02-16T08:12:24;176.63;;;42.63;;
67675;SDS011;54456;48.436;10.028;2023-02-16T08:13:54;154.33;;;38.67;;
67675;SDS011;54456;48.436;10.028;2023-02-16T08:15:25;150.00;;;38.33;;
67675;SDS011;54456;48.436;10.028;2023-02-16T08:16:55;139.10;;;39.07;;
67675;SDS011;54456;48.436;10.028;2023-02-16T08:18:25;119.70;;;33.83;;
67675;SDS011;54456;48.436;10.028;2023-02-16T08:19:55;100.97;;;29.43;;
67675;SDS011;54456;48.436;10.028;2023-02-16T08:21:32;76.03;;;23.43;;
67675;SDS011;54456;48.436;10.028;2023-02-16T08:23:03;69.47;;;21.95;;
67675;SDS011;54456;48.436;10.028;2023-02-16T08:24:34;58.88;;;19.70;;
67675;SDS011;54456;48.436;10.028;2023-02-16T08:26:08;53.20;;;16.88;;
67675;SDS011;54456;48.436;10.028;2023-02-16T08:27:39;53.28;;;18.02;;
67675;SDS011;54456;48.436;10.028;2023-02-16T08:29:09;51.20;;;17.10;;
67675;SDS011;54456;48.436;10.028;2023-02-16T08:30:42;52.22;;;19.15;;
67675;SDS011;54456;48.436;10.028;2023-02-16T08:32:12;51.27;;;18.00;;
67675;SDS011;54456;48.436;10.028;2023-02-16T08:33:43;48.70;;;17.83;;
67675;SDS011;54456;48.436;10.028;2023-02-16T08:35:13;54.17;;;18.70;;
67675;SDS011;54456;48.436;10.028;2023-02-16T08:36:45;47.80;;;18.00;;
67675;SDS011;54456;48.436;10.028;2023-02-16T08:38:15;52.70;;;18.65;;
67675;SDS011;54456;48.436;10.028;2023-02-16T08:39:46;48.65;;;17.98;;
67675;SDS011;54456;48.436;10.028;2023-02-16T08:41:19;44.13;;;16.90;;
67675;SDS011;54456;48.436;10.028;2023-02-16T08:42:49;43.70;;;15.85;;
67675;SDS011;54456;48.436;10.028;2023-02-16T08:44:20;45.30;;;17.25;;
67675;SDS011;54456;48.436;10.028;2023-02-16T08:45:51;43.45;;;17.52;;
67675;SDS011;54456;48.436;10.028;2023-02-16T08:47:21;46.30;;;17.67;;
67675;SDS011;54456;48.436;10.028;2023-02-16T08:48:56;37.92;;;15.23;;
67675;SDS011;54456;48.436;10.028;2023-02-16T08:50:28;48.60;;;17.60;;
67675;SDS011;54456;48.436;10.028;2023-02-16T08:51:58;48.00;;;19.80;;
67675;SDS011;54456;48.436;10.028;2023-02-16T08:53:30;44.78;;;16.60;;
67675;SDS011;54456;48.436;10.028;2023-02-16T08:55:02;44.33;;;15.27;;
67675;SDS011;54456;48.436;10.028;2023-02-16T08:56:32;43.87;;;15.63;;
67675;SDS011;54456;48.436;10.028;2023-02-16T08:58:03;45.22;;;16.50;;
67675;SDS011;54456;48.436;10.028;2023-02-16T08:59:33;44.90;;;16.55;;
67675;SDS011;54456;48.436;10.028;2023-02-16T09:01:04;40.17;;;14.40;;
67675;SDS011;54456;48.436;10.028;2023-02-16T09:02:37;41.30;;;15.38;;
67675;SDS011;54456;48.436;10.028;2023-02-16T09:04:07;43.57;;;15.87;;
67675;SDS011;54456;48.436;10.028;2023-02-16T09:05:38;43.08;;;15.55;;
67675;SDS011;54456;48.436;10.028;2023-02-16T09:07:09;39.78;;;14.95;;
67675;SDS011;54456;48.436;10.028;2023-02-16T09:08:39;40.30;;;15.27;;
67675;SDS011;54456;48.436;10.028;2023-02-16T09:10:10;39.55;;;15.25;;
67675;SDS011;54456;48.436;10.028;2023-02-16T09:11:42;40.33;;;16.50;;
67675;SDS011;54456;48.436;10.028;2023-02-16T09:13:12;41.13;;;16.17;;
67675;SDS011;54456;48.436;10.028;2023-02-16T09:14:43;42.25;;;17.98;;
67675;SDS011;54456;48.436;10.028;2023-02-16T09:16:18;38.88;;;16.33;;
67675;SDS011;54456;48.436;10.028;2023-02-16T09:17:48;39.72;;;15.93;;
67675;SDS011;54456;48.436;10.028;2023-02-16T09:19:19;38.70;;;16.93;;
67675;SDS011;54456;48.436;10.028;2023-02-16T09:20:49;39.30;;;15.45;;
67675;SDS011;54456;48.436;10.028;2023-02-16T09:22:20;39.65;;;15.82;;
67675;SDS011;54456;48.436;10.028;2023-02-16T09:23:52;40.55;;;17.73;;
67675;SDS011;54456;48.436;10.028;2023-02-16T09:25:23;40.17;;;15.68;;
67675;SDS011;54456;48.436;10.028;2023-02-16T09:26:54;39.70;;;16.13;;
67675;SDS011;54456;48.436;10.028;2023-02-16T09:28:24;41.20;;;16.13;;
67675;SDS011;54456;48.436;10.028;2023-02-16T09:29:55;37.37;;;16.07;;
67675;SDS011;54456;48.436;10.028;2023-02-16T09:31:28;39.75;;;16.90;;
67675;SDS011;54456;48.436;10.028;2023-02-16T09:32:59;37.42;;;15.45;;
67675;SDS011;54456;48.436;10.028;2023-02-16T09:34:30;35.43;;;16.60;;
67675;SDS011;54456;48.436;10.028;2023-02-16T09:36:03;37.90;;;15.87;;
67675;SDS011;54456;48.436;10.028;2023-02-16T09:37:34;40.35;;;17.33;;
67675;SDS011;54456;48.436;10.028;2023-02-16T09:39:04;40.33;;;16.40;;
67675;SDS011;54456;48.436;10.028;2023-02-16T09:40:35;40.50;;;16.60;;
67675;SDS011;54456;48.436;10.028;2023-02-16T09:42:18;41.13;;;16.63;;
67675;SDS011;54456;48.436;10.028;2023-02-16T09:43:55;40.75;;;15.77;;
67675;SDS011;54456;48.436;10.028;2023-02-16T09:45:26;40.58;;;16.75;;
67675;SDS011;54456;48.436;10.028;2023-02-16T09:46:58;38.20;;;15.30;;
67675;SDS011;54456;48.436;10.028;2023-02-16T09:48:35;35.17;;;14.25;;
67675;SDS011;54456;48.436;10.028;2023-02-16T09:50:17;35.28;;;15.68;;
67675;SDS011;54456;48.436;10.028;2023-02-16T09:51:48;36.67;;;16.25;;
67675;SDS011;54456;48.436;10.028;2023-02-16T09:53:21;39.47;;;15.52;;
67675;SDS011;54456;48.436;10.028;2023-02-16T09:54:54;38.35;;;15.55;;
67675;SDS011;54456;48.436;10.028;2023-02-16T09:57:00;38.05;;;16.23;;
67675;SDS011;54456;48.436;10.028;2023-02-16T09:58:25;36.63;;;15.07;;
67675;SDS011;54456;48.436;10.028;2023-02-16T10:08:12;33.90;;;14.27;;
67675;SDS011;54456;48.436;10.028;2023-02-16T10:09:44;33.72;;;14.32;;
67675;SDS011;54456;48.436;10.028;2023-02-16T10:11:18;31.83;;;13.95;;
67675;SDS011;54456;48.436;10.028;2023-02-16T10:13:12;32.67;;;12.98;;
67675;SDS011;54456;48.436;10.028;2023-02-16T10:14:48;34.20;;;13.50;;
67675;SDS011;54456;48.436;10.028;2023-02-16T10:16:22;28.10;;;12.50;;
67675;SDS011;54456;48.436;10.028;2023-02-16T10:19:30;34.20;;;15.30;;
67675;SDS011;54456;48.436;10.028;2023-02-16T10:21:04;34.85;;;13.82;;
67675;SDS011;54456;48.436;10.028;2023-02-16T10:24:24;36.25;;;15.55;;
67675;SDS011;54456;48.436;10.028;2023-02-16T10:25:59;34.58;;;14.07;;
67675;SDS011;54456;48.436;10.028;2023-02-16T10:27:33;34.38;;;14.38;;
67675;SDS011;54456;48.436;10.028;2023-02-16T10:29:06;35.20;;;14.05;;
67675;SDS011;54456;48.436;10.028;2023-02-16T10:30:37;34.25;;;14.55;;
67675;SDS011;54456;48.436;10.028;2023-02-16T10:35:48;35.53;;;16.45;;
67675;SDS011;54456;48.436;10.028;2023-02-16T10:37:32;33.65;;;14.13;;
67675;SDS011;54456;48.436;10.028;2023-02-16T10:43:17;32.63;;;14.02;;
67675;SDS011;54456;48.436;10.028;2023-02-16T10:45:04;33.58;;;12.45;;
67675;SDS011;54456;48.436;10.028;2023-02-16T10:46:44;33.65;;;14.35;;
67675;SDS011;54456;48.436;10.028;2023-02-16T10:48:16;33.85;;;15.30;;
67675;SDS011;54456;48.436;10.028;2023-02-16T10:49:46;31.35;;;13.07;;
67675;SDS011;54456;48.436;10.028;2023-02-16T10:51:17;29.83;;;13.15;;
67675;SDS011;54456;48.436;10.028;2023-02-16T10:52:48;33.10;;;13.10;;
67675;SDS011;54456;48.436;10.028;2023-02-16T10:54:21;32.85;;;13.73;;
67675;SDS011;54456;48.436;10.028;2023-02-16T10:55:55;32.58;;;12.57;;
67675;SDS011;54456;48.436;10.028;2023-02-16T10:57:26;33.45;;;14.60;;
67675;SDS011;54456;48.436;10.028;2023-02-16T10:58:57;32.00;;;14.57;;
67675;SDS011;54456;48.436;10.028;2023-02-16T11:00:32;30.67;;;13.32;;
67675;SDS011;54456;48.436;10.028;2023-02-16T11:03:56;35.13;;;13.98;;
67675;SDS011;54456;48.436;10.028;2023-02-16T11:07:06;33.33;;;15.07;;
67675;SDS011;54456;48.436;10.028;2023-02-16T11:08:50;30.95;;;12.88;;
67675;SDS011;54456;48.436;10.028;2023-02-16T11:13:47;36.97;;;13.55;;
67675;SDS011;54456;48.436;10.028;2023-02-16T11:18:41;31.73;;;14.35;;
67675;SDS011;54456;48.436;10.028;2023-02-16T11:22:01;28.75;;;11.68;;
67675;SDS011;54456;48.436;10.028;2023-02-16T11:23:41;31.67;;;13.70;;
67675;SDS011;54456;48.436;10.028;2023-02-16T11:30:17;31.90;;;13.35;;
67675;SDS011;54456;48.436;10.028;2023-02-16T11:31:52;30.85;;;14.20;;
67675;SDS011;54456;48.436;10.028;2023-02-16T11:33:23;31.67;;;12.88;;
67675;SDS011;54456;48.436;10.028;2023-02-16T11:34:55;33.08;;;14.52;;
67675;SDS011;54456;48.436;10.028;2023-02-16T11:37:58;31.92;;;12.05;;
67675;SDS011;54456;48.436;10.028;2023-02-16T11:39:31;28.35;;;12.13;;
67675;SDS011;54456;48.436;10.028;2023-02-16T11:41:04;28.17;;;11.88;;
67675;SDS011;54456;48.436;10.028;2023-02-16T11:42:37;31.50;;;13.40;;
67675;SDS011;54456;48.436;10.028;2023-02-16T11:44:19;29.33;;;12.57;;
67675;SDS011;54456;48.436;10.028;2023-02-16T11:46:03;30.42;;;12.30;;
67675;SDS011;54456;48.436;10.028;2023-02-16T11:47:35;29.50;;;12.77;;
67675;SDS011;54456;48.436;10.028;2023-02-16T11:50:57;29.65;;;12.60;;
67675;SDS011;54456;48.436;10.028;2023-02-16T11:52:28;31.38;;;13.98;;
67675;SDS011;54456;48.436;10.028;2023-02-16T11:54:00;28.75;;;13.18;;
67675;SDS011;54456;48.436;10.028;2023-02-16T11:55:31;28.10;;;11.75;;
67675;SDS011;54456;48.436;10.028;2023-02-16T11:57:05;26.02;;;12.05;;
67675;SDS011;54456;48.436;10.028;2023-02-16T11:58:38;28.35;;;12.52;;
67675;SDS011;54456;48.436;10.028;2023-02-16T12:02:05;19.85;;;8.27;;
67675;SDS011;54456;48.436;10.028;2023-02-16T12:06:55;26.70;;;10.88;;
67675;SDS011;54456;48.436;10.028;2023-02-16T12:08:37;24.23;;;10.20;;
67675;SDS011;54456;48.436;10.028;2023-02-16T12:10:12;25.02;;;11.40;;
67675;SDS011;54456;48.436;10.028;2023-02-16T12:11:47;24.05;;;11.00;;
67675;SDS011;54456;48.436;10.028;2023-02-16T12:13:25;26.35;;;10.90;;
67675;SDS011;54456;48.436;10.028;2023-02-16T12:18:26;26.55;;;10.23;;
67675;SDS011;54456;48.436;10.028;2023-02-16T12:21:47;21.45;;;9.45;;
67675;SDS011;54456;48.436;10.028;2023-02-16T12:23:32;24.33;;;10.27;;
67675;SDS011;54456;48.436;10.028;2023-02-16T12:26:59;21.42;;;9.60;;
67675;SDS011;54456;48.436;10.028;2023-02-16T12:29:19;25.67;;;9.85;;
67675;SDS011;54456;48.436;10.028;2023-02-16T12:43:40;24.02;;;8.63;;
67675;SDS011;54456;48.436;10.028;2023-02-16T12:45:12;22.23;;;10.63;;
67675;SDS011;54456;48.436;10.028;2023-02-16T12:46:44;19.70;;;8.30;;
67675;SDS011;54456;48.436;10.028;2023-02-16T12:49:53;21.08;;;8.45;;
67675;SDS011;54456;48.436;10.028;2023-02-16T12:51:37;17.20;;;6.10;;
67675;SDS011;54456;48.436;10.028;2023-02-16T12:53:28;20.20;;;8.80;;
67675;SDS011;54456;48.436;10.028;2023-02-16T12:56:44;19.77;;;8.85;;
67675;SDS011;54456;48.436;10.028;2023-02-16T12:58:21;14.43;;;6.25;;
67675;SDS011;54456;48.436;10.028;2023-02-16T12:59:53;21.20;;;7.72;;
67675;SDS011;54456;48.436;10.028;2023-02-16T13:01:26;17.88;;;8.05;;
67675;SDS011;54456;48.436;10.028;2023-02-16T13:03:05;19.20;;;7.57;;
67675;SDS011;54456;48.436;10.028;2023-02-16T13:04:48;17.83;;;7.25;;
67675;SDS011;54456;48.436;10.028;2023-02-16T13:08:04;13.45;;;5.47;;
67675;SDS011;54456;48.436;10.028;2023-02-16T13:09:43;19.00;;;7.68;;
67675;SDS011;54456;48.436;10.028;2023-02-16T13:11:52;18.58;;;7.82;;
67675;SDS011;54456;48.436;10.028;2023-02-16T13:13:16;14.82;;;5.95;;
67675;SDS011;54456;48.436;10.028;2023-02-16T13:14:49;19.23;;;7.13;;
67675;SDS011;54456;48.436;10.028;2023-02-16T13:16:42;19.23;;;7.93;;
67675;SDS011;54456;48.436;10.028;2023-02-16T13:18:19;17.65;;;8.73;;
67675;SDS011;54456;48.436;10.028;2023-02-16T13:19:50;20.70;;;7.63;;
67675;SDS011;54456;48.436;10.028;2023-02-16T13:42:49;16.48;;;6.78;;
67675;SDS011;54456;48.436;10.028;2023-02-16T13:46:04;16.80;;;6.60;;
67675;SDS011;54456;48.436;10.028;2023-02-16T13:47:36;16.00;;;6.28;;
67675;SDS011;54456;48.436;10.028;2023-02-16T13:51:00;17.23;;;6.65;;
67675;SDS011;54456;48.436;10.028;2023-02-16T13:52:36;16.27;;;6.78;;
67675;SDS011;54456;48.436;10.028;2023-02-16T13:54:20;19.13;;;6.45;;
67675;SDS011;54456;48.436;10.028;2023-02-16T14:00:48;15.77;;;5.40;;
67675;SDS011;54456;48.436;10.028;2023-02-16T14:02:50;13.63;;;5.25;;
67675;SDS011;54456;48.436;10.028;2023-02-16T14:05:42;13.48;;;4.85;;
67675;SDS011;54456;48.436;10.028;2023-02-16T14:09:29;14.15;;;4.82;;
67675;SDS011;54456;48.436;10.028;2023-02-16T14:12:30;11.50;;;4.68;;
67675;SDS011;54456;48.436;10.028;2023-02-16T14:14:02;18.73;;;5.00;;
67675;SDS011;54456;48.436;10.028;2023-02-16T14:15:33;10.32;;;3.65;;
67675;SDS011;54456;48.436;10.028;2023-02-16T14:20:28;12.35;;;4.80;;
67675;SDS011;54456;48.436;10.028;2023-02-16T14:21:58;11.68;;;4.45;;
67675;SDS011;54456;48.436;10.028;2023-02-16T14:23:38;12.90;;;4.50;;
67675;SDS011;54456;48.436;10.028;2023-02-16T14:25:51;16.00;;;4.22;;
67675;SDS011;54456;48.436;10.028;2023-02-16T14:27:06;14.80;;;4.68;;
67675;SDS011;54456;48.436;10.028;2023-02-16T14:28:50;8.68;;;2.97;;
67675;SDS011;54456;48.436;10.028;2023-02-16T14:32:25;10.45;;;3.67;;